• Join FlightAware (Why Join?)
  • Login
  • US Flag 
Rudolph Flight #1: Arrived! 
10:05PM EST


 

Airport Tracker/Info


-or-


 

Live Flight TrackerFlight Track Log ✈ ASQ5772 ✈ 08-Jun-2012 ✈ KORD - KSAV

Flight Track Log - Related Links

Times and Time Zones

All times are in EDT time to prevent confusion due to time zone crossing. See the ASQ5772 flight status page for this flight to view local times or setup timezone preferences in your user account.

Time Position Orientation Groundspeed Altitude Reporting Facility
EDT Latitude Longitude Course Direction KTS MPH feet Rate Location/Type
08:30PM 41.9167 -87.9000 154° Southeast 182 209 2,500  Level Chicago TRACON
08:35PM 41.5900 -87.6869 153° Southeast 307 353 11,100 1,800 Climbing Chicago Center
08:36PM 41.4994 -87.6256 156° South 333 383 13,100 1,680 Climbing Chicago Center
08:37PM 41.4047 -87.5697 172° South 357 411 14,500 1,320 Climbing Chicago Center
08:38PM 41.3003 -87.5506 173° South 368 423 15,800 1,260 Climbing Chicago Center
08:39PM 41.1958 -87.5342 168° South 379 436 17,100 1,200 Climbing Chicago Center
08:40PM 41.0911 -87.5039 168° South 384 442 18,300 1,080 Climbing Chicago Center
08:41PM 40.9822 -87.4742 169° South 390 449 19,300 960 Climbing Chicago Center
08:42PM 40.8753 -87.4469 168° South 395 455 20,300 960 Climbing Chicago Center
08:43PM 40.7664 -87.4172 168° South 395 455 21,300 960 Climbing Chicago Center
08:44PM 40.6575 -87.3875 169° South 395 455 22,300 960 Climbing Chicago Center
08:45PM 40.5486 -87.3606 165° South 395 455 23,300 660 Climbing Chicago Center
08:47PM 40.3528 -87.2914 160° South 429 494 24,200 480 Climbing Indianapolis Center
08:48PM 40.2294 -87.2331 162° South 434 499 24,700 540 Climbing Indianapolis Center
08:49PM 40.1142 -87.1836 157° South 434 499 25,300 660 Climbing Indianapolis Center
08:50PM 40.0036 -87.1211 147° Southeast 434 499 26,100 720 Climbing Indianapolis Center
08:51PM 39.9039 -87.0375 146° Southeast 428 493 26,800 720 Climbing Indianapolis Center
08:52PM 39.8042 -86.9514 148° Southeast 427 491 27,600 720 Climbing Indianapolis Center
08:53PM 39.7064 -86.8711 147° Southeast 425 489 28,300 660 Climbing Indianapolis Center
08:54PM 39.6067 -86.7883 146° Southeast 425 489 29,000 300 Climbing Indianapolis Center
08:55PM 39.5089 -86.7031 147° Southeast 425 489 29,000  Level Indianapolis Center
08:56PM 39.4047 -86.6153 147° Southeast 430 495 29,000 180 Level Indianapolis Center
08:57PM 39.3006 -86.5275 147° Southeast 437 503 29,400 420 Climbing Indianapolis Center
08:58PM 39.2006 -86.4431 148° Southeast 437 503 29,900 480 Climbing Indianapolis Center
08:59PM 39.0961 -86.3583 147° Southeast 437 503 30,400 480 Climbing Indianapolis Center
09:00PM 38.9961 -86.2744 147° Southeast 437 503 30,900 480 Climbing Indianapolis Center
09:01PM 38.8978 -86.1933 146° Southeast 431 496 31,400 480 Climbing Indianapolis Center
09:02PM 38.8036 -86.1125 147° Southeast 420 483 31,900 480 Climbing Indianapolis Center
09:03PM 38.7053 -86.0319 148° Southeast 420 483 32,400 420 Climbing Indianapolis Center
09:04PM 38.6047 -85.9514 149° Southeast 426 490 32,800 300 Climbing Indianapolis Center
09:05PM 38.5142 -85.8822 148° Southeast 426 490 33,000 60 Climbing Indianapolis Center
09:06PM 38.4117 -85.7994 147° Southeast 426 490 33,000  Level Indianapolis Center
09:07PM 38.3131 -85.7169 148° Southeast 426 490 33,000  Level Indianapolis Center
09:08PM 38.2039 -85.6317 147° Southeast 437 503 33,000  Level Indianapolis Center
09:09PM 38.1033 -85.5497 149° Southeast 444 511 33,000  Level Indianapolis Center
09:10PM 37.9942 -85.4650 148° Southeast 444 511 33,000  Level Indianapolis Center
09:11PM 37.8869 -85.3808 151° Southeast 444 511 33,000  Level Indianapolis Center
09:12PM 37.7650 -85.2961 147° Southeast 449 517 33,000  Level Indianapolis Center
09:13PM 37.6600 -85.2097 156° South 454 522 33,000  Level Indianapolis Center
09:14PM 37.5461 -85.1469 158° South 454 522 33,000  Level Indianapolis Center
09:15PM 37.4258 -85.0869 159° South 454 522 33,000  Level Indianapolis Center
09:16PM 37.3097 -85.0322 158° South 449 517 33,000  Level Indianapolis Center
09:17PM 37.1958 -84.9753 152° Southeast 449 517 33,000  Level Indianapolis Center
09:18PM 37.0842 -84.9003 149° Southeast 449 517 33,000  Level Indianapolis Center
09:19PM 36.9786 -84.8206 149° Southeast 449 517 33,000  Level Indianapolis Center
09:20PM 36.8667 -84.7381 150° Southeast 454 522 33,000  Level Indianapolis Center
09:21PM 36.7589 -84.6614 147° Southeast 454 522 33,000  Level Indianapolis Center
09:23PM 36.5706 -84.5117 148° Southeast 446 513 33,000  Level Atlanta Center
09:24PM 36.4603 -84.4258 147° Southeast 453 521 33,000  Level Atlanta Center
09:25PM 36.3644 -84.3481 147° Southeast 453 521 33,000  Level Atlanta Center
09:26PM 36.2542 -84.2603 148° Southeast 453 521 33,000  Level Atlanta Center
09:27PM 36.1458 -84.1750 148° Southeast 458 527 33,000  Level Atlanta Center
09:28PM 36.0353 -84.0900 148° Southeast 458 527 33,000  Level Atlanta Center
09:29PM 35.9247 -84.0056 147° Southeast 463 533 33,000  Level Atlanta Center
09:30PM 35.8161 -83.9183 149° Southeast 463 533 33,000  Level Atlanta Center
09:31PM 35.7036 -83.8342 147° Southeast 469 540 33,000  Level Atlanta Center
09:32PM 35.5947 -83.7475 148° Southeast 476 548 33,000  Level Atlanta Center
09:33PM 35.4839 -83.6639 148° Southeast 476 548 33,000  Level Atlanta Center
09:34PM 35.3731 -83.5803 148° Southeast 476 548 33,000  Level Atlanta Center
09:35PM 35.2622 -83.4944 150° Southeast 476 548 33,000  Level Atlanta Center
09:36PM 35.1386 -83.4064 146° Southeast 476 548 33,000  Level Atlanta Center
09:37PM 35.0317 -83.3183 148° Southeast 471 542 33,000  Level Atlanta Center
09:38PM 34.9186 -83.2333 147° Southeast 471 542 33,000  Level Atlanta Center
09:39PM 34.8075 -83.1458 148° Southeast 482 555 33,000  Level Atlanta Center
09:40PM 34.7044 -83.0686 148° Southeast 482 555 33,000  Level Atlanta Center
09:41PM 34.5975 -82.9864 149° Southeast 475 547 33,000  Level Atlanta Center
09:42PM 34.4819 -82.9022 148° Southeast 475 547 33,000  Level Atlanta Center
09:43PM 34.3725 -82.8206 149° Southeast 475 547 33,000  Level Atlanta Center
09:44PM 34.2592 -82.7394 148° Southeast 474 545 33,000 -300 Level Atlanta Center
09:45PM 34.1350 -82.6458 149° Southeast 474 545 32,400 -660 Descending Atlanta Center
09:46PM 34.0211 -82.5625 148° Southeast 481 554 31,700 -720 Descending Atlanta Center
09:47PM 33.9053 -82.4769 149° Southeast 481 554 31,000 -720 Descending Atlanta Center
09:48PM 33.7917 -82.3942 149° Southeast 481 554 30,300 -600 Descending Atlanta Center
09:49PM 33.6778 -82.3114 149° Southeast 482 555 29,900 -720 Descending Atlanta Center
09:51PM 33.4144 -82.1211 149° Southeast 492 566 28,000 -840 Descending Jacksonville Center
09:52PM 33.2972 -82.0378 148° Southeast 492 566 27,300 -840 Descending Jacksonville Center
09:53PM 33.1839 -81.9544 148° Southeast 492 566 26,400 -1,320 Descending Jacksonville Center
09:54PM 33.0706 -81.8714 150° Southeast 492 566 24,700 -2,700 Descending Jacksonville Center
09:55PM 32.9592 -81.7933 149° Southeast 486 559 21,100 -3,480 Descending Jacksonville Center
09:56PM 32.8500 -81.7156 149° Southeast 473 544 17,800 -3,000 Descending Jacksonville Center
09:57PM 32.7658 -81.6547 152° Southeast 445 512 15,100 -3,000 Descending Jacksonville Center
09:58PM 32.6608 -81.5872 157° South 410 472 11,900 -2,220 Descending Jacksonville Center
09:59PM 32.5686 -81.5417 156° South 374 430 10,700 -1,200 Descending Jacksonville Center
10:00PM 32.4992 -81.5058 159° South 330 380 9,500 -1,800 Descending Jacksonville Center
10:01PM 32.4153 -81.4678 160° South 295 339 7,200 -2,040 Descending Jacksonville Center
10:02PM 32.3439 -81.4369 159° South 284 327 5,500 -1,680 Descending Jacksonville Center
10:03PM 32.2747 -81.4061 160° South 267 307 3,900 -1,260 Descending Jacksonville Center
10:04PM 32.2203 -81.3825 148° Southeast 248 285 3,000 -960 Descending Jacksonville Center
10:05PM 32.1653 -81.3417 137° Southeast 214 246 2,000 -780 Descending Jacksonville Center
10:06PM 32.1317 -81.3053 100° East 178 205 1,500 -540 Descending Jacksonville Center
10:13PM 32.1167 -81.2000 351° North  Level FlightAware Approximate
10:14PM 32.2294 -81.2221 171° South  Level Estimated
10:15PM 32.1167 -81.2000 171° South  Level FlightAware Approximate